LSZB/BRN METAR and TAF weather

Enter ICAO airport designator
Station Type Date Time Source
LSZB METAR 2020/12/06 00:50 UTC NOAA

LSZB 060050Z AUTO 33002KT 2400 -SN BKN007 OVC010 00/00 Q0997


Station Type Date Time Source
LSZB Decoded METAR 2020/12/06 00:50 UTC NOAA

Bern / Belp , Switzerland (LSZB) 46-55N 007-30E
Dec 05, 2020 - 07:50 PM EST / 2020.12.06 0050 UTC
Wind: from the NNW (330 degrees) at 2 MPH (2 KT):0
Visibility: 1 mile(s):0
Sky conditions: overcast
Weather: light snow
Temperature: 32 F (0 C)
Dew Point: 32 F (0 C)
Relative Humidity: 100%
Pressure (altimeter): 29.44 in. Hg (0997 hPa)
ob: LSZB 060050Z AUTO 33002KT 2400 -SN BKN007 OVC010 00/00 Q0997
cycle: 1

Station Type Date Time Source
LSZB TAF 2014/12/22 20:03 UTC NOAA

TAF
AMD TAF
AMD LSZB 222054Z 2220/2224 CNL

Example: see airport list